sensor_id;sensor_type;location;lat;lon;timestamp;temperature;humidity
19924;DHT22;10124;53.068;18.224;2023-02-22T00:01:55;1.80;1.00
19924;DHT22;10124;53.068;18.224;2023-02-22T00:04:39;1.80;1.00
19924;DHT22;10124;53.068;18.224;2023-02-22T00:07:07;1.70;1.00
19924;DHT22;10124;53.068;18.224;2023-02-22T00:09:35;1.70;1.00
19924;DHT22;10124;53.068;18.224;2023-02-22T00:12:03;1.60;1.00
19924;DHT22;10124;53.068;18.224;2023-02-22T00:14:30;1.60;1.00
19924;DHT22;10124;53.068;18.224;2023-02-22T00:16:57;2.70;1.00
19924;DHT22;10124;53.068;18.224;2023-02-22T00:19:26;1.50;1.00
19924;DHT22;10124;53.068;18.224;2023-02-22T00:21:57;1.50;1.00
19924;DHT22;10124;53.068;18.224;2023-02-22T00:24:24;1.30;1.00
19924;DHT22;10124;53.068;18.224;2023-02-22T00:26:54;1.20;1.00
19924;DHT22;10124;53.068;18.224;2023-02-22T00:29:23;1.80;1.00
19924;DHT22;10124;53.068;18.224;2023-02-22T00:31:51;1.20;1.00
19924;DHT22;10124;53.068;18.224;2023-02-22T00:34:18;1.20;1.00
19924;DHT22;10124;53.068;18.224;2023-02-22T00:36:47;1.10;1.00
19924;DHT22;10124;53.068;18.224;2023-02-22T00:39:15;1.10;1.00
19924;DHT22;10124;53.068;18.224;2023-02-22T00:41:44;2.90;1.00
19924;DHT22;10124;53.068;18.224;2023-02-22T00:44:11;0.90;1.00
19924;DHT22;10124;53.068;18.224;2023-02-22T00:46:39;0.80;1.00
19924;DHT22;10124;53.068;18.224;2023-02-22T00:49:06;0.90;1.00
19924;DHT22;10124;53.068;18.224;2023-02-22T00:51:34;0.80;1.00
19924;DHT22;10124;53.068;18.224;2023-02-22T00:54:02;0.80;1.00
19924;DHT22;10124;53.068;18.224;2023-02-22T00:56:32;0.70;1.00
19924;DHT22;10124;53.068;18.224;2023-02-22T00:59:01;0.60;1.00
19924;DHT22;10124;53.068;18.224;2023-02-22T01:01:30;0.60;1.00
19924;DHT22;10124;53.068;18.224;2023-02-22T01:03:59;0.60;1.00
19924;DHT22;10124;53.068;18.224;2023-02-22T01:06:27;0.60;1.00
19924;DHT22;10124;53.068;18.224;2023-02-22T01:08:57;2.20;1.00
19924;DHT22;10124;53.068;18.224;2023-02-22T01:11:25;0.50;1.00
19924;DHT22;10124;53.068;18.224;2023-02-22T01:13:52;1.20;1.00
19924;DHT22;10124;53.068;18.224;2023-02-22T01:16:24;3.00;1.00
19924;DHT22;10124;53.068;18.224;2023-02-22T01:18:51;0.60;1.00
19924;DHT22;10124;53.068;18.224;2023-02-22T01:21:19;0.70;1.00
19924;DHT22;10124;53.068;18.224;2023-02-22T01:23:47;1.00;1.00
19924;DHT22;10124;53.068;18.224;2023-02-22T01:26:14;0.70;1.00
19924;DHT22;10124;53.068;18.224;2023-02-22T01:28:42;0.80;1.00
19924;DHT22;10124;53.068;18.224;2023-02-22T01:31:10;0.90;1.00
19924;DHT22;10124;53.068;18.224;2023-02-22T01:33:39;0.70;1.00
19924;DHT22;10124;53.068;18.224;2023-02-22T01:36:07;0.60;1.00
19924;DHT22;10124;53.068;18.224;2023-02-22T01:38:38;0.60;1.00
19924;DHT22;10124;53.068;18.224;2023-02-22T01:41:06;0.40;1.00
19924;DHT22;10124;53.068;18.224;2023-02-22T01:43:35;0.40;1.00
19924;DHT22;10124;53.068;18.224;2023-02-22T01:48:44;0.20;1.00
19924;DHT22;10124;53.068;18.224;2023-02-22T01:51:22;0.10;1.00
19924;DHT22;10124;53.068;18.224;2023-02-22T01:54:06;0.10;1.00
19924;DHT22;10124;53.068;18.224;2023-02-22T01:56:39;0.10;1.00
19924;DHT22;10124;53.068;18.224;2023-02-22T01:59:09;-0.10;1.00
19924;DHT22;10124;53.068;18.224;2023-02-22T02:01:39;2.20;1.00
19924;DHT22;10124;53.068;18.224;2023-02-22T02:04:12;0.00;1.00
19924;DHT22;10124;53.068;18.224;2023-02-22T02:06:40;-0.10;1.00
19924;DHT22;10124;53.068;18.224;2023-02-22T02:09:10;0.90;1.00
19924;DHT22;10124;53.068;18.224;2023-02-22T02:11:41;-0.20;1.00
19924;DHT22;10124;53.068;18.224;2023-02-22T02:14:09;1.70;1.00
19924;DHT22;10124;53.068;18.224;2023-02-22T02:16:43;-0.30;1.00
19924;DHT22;10124;53.068;18.224;2023-02-22T02:19:29;-0.40;1.00
19924;DHT22;10124;53.068;18.224;2023-02-22T02:22:29;-0.40;1.00
19924;DHT22;10124;53.068;18.224;2023-02-22T02:31:04;-0.30;1.00
19924;DHT22;10124;53.068;18.224;2023-02-22T02:33:45;-0.50;1.00
19924;DHT22;10124;53.068;18.224;2023-02-22T02:36:59;-0.70;1.00
19924;DHT22;10124;53.068;18.224;2023-02-22T02:39:47;-0.80;1.00
19924;DHT22;10124;53.068;18.224;2023-02-22T02:42:20;-0.80;7.00
19924;DHT22;10124;53.068;18.224;2023-02-22T02:44:57;-0.80;13.10
19924;DHT22;10124;53.068;18.224;2023-02-22T02:47:29;-0.30;40.20
19924;DHT22;10124;53.068;18.224;2023-02-22T02:50:28;-0.80;46.90
19924;DHT22;10124;53.068;18.224;2023-02-22T02:53:02;-0.80;48.20
19924;DHT22;10124;53.068;18.224;2023-02-22T02:55:31;0.20;71.40
19924;DHT22;10124;53.068;18.224;2023-02-22T02:57:59;-0.80;92.40
19924;DHT22;10124;53.068;18.224;2023-02-22T03:00:30;-0.80;98.60
19924;DHT22;10124;53.068;18.224;2023-02-22T03:06:40;-0.90;99.90
19924;DHT22;10124;53.068;18.224;2023-02-22T03:09:29;-0.30;99.90
19924;DHT22;10124;53.068;18.224;2023-02-22T03:15:21;-0.30;99.90
19924;DHT22;10124;53.068;18.224;2023-02-22T03:18:21;-1.10;99.90
19924;DHT22;10124;53.068;18.224;2023-02-22T03:23:41;-0.80;99.90
19924;DHT22;10124;53.068;18.224;2023-02-22T03:26:13;-0.70;99.90
19924;DHT22;10124;53.068;18.224;2023-02-22T03:28:46;-0.10;99.90
19924;DHT22;10124;53.068;18.224;2023-02-22T03:31:28;-0.80;99.90
19924;DHT22;10124;53.068;18.224;2023-02-22T03:34:04;-0.80;99.90
19924;DHT22;10124;53.068;18.224;2023-02-22T03:36:37;-0.90;99.90
19924;DHT22;10124;53.068;18.224;2023-02-22T03:39:09;-1.00;99.90
19924;DHT22;10124;53.068;18.224;2023-02-22T03:44:11;-0.40;99.90
19924;DHT22;10124;53.068;18.224;2023-02-22T03:46:41;-1.00;99.90
19924;DHT22;10124;53.068;18.224;2023-02-22T03:49:54;-1.00;99.90
19924;DHT22;10124;53.068;18.224;2023-02-22T03:57:34;-1.20;99.90
19924;DHT22;10124;53.068;18.224;2023-02-22T04:00:07;-1.30;99.90
19924;DHT22;10124;53.068;18.224;2023-02-22T04:02:43;-1.40;99.90
19924;DHT22;10124;53.068;18.224;2023-02-22T04:10:16;-1.50;99.90
19924;DHT22;10124;53.068;18.224;2023-02-22T04:15:21;-1.60;99.90
19924;DHT22;10124;53.068;18.224;2023-02-22T04:25:23;-1.70;99.90
19924;DHT22;10124;53.068;18.224;2023-02-22T05:02:58;-1.60;99.90
19924;DHT22;10124;53.068;18.224;2023-02-22T05:05:27;-1.60;99.90
19924;DHT22;10124;53.068;18.224;2023-02-22T05:07:54;-1.20;99.90
19924;DHT22;10124;53.068;18.224;2023-02-22T05:10:21;-0.90;99.90
19924;DHT22;10124;53.068;18.224;2023-02-22T05:12:49;-1.60;99.90
19924;DHT22;10124;53.068;18.224;2023-02-22T05:15:19;-1.40;99.90
19924;DHT22;10124;53.068;18.224;2023-02-22T05:20:28;-1.20;99.90
19924;DHT22;10124;53.068;18.224;2023-02-22T05:22:58;-1.40;99.90
19924;DHT22;10124;53.068;18.224;2023-02-22T05:25:27;-1.40;99.90
19924;DHT22;10124;53.068;18.224;2023-02-22T05:27:57;-1.30;99.90
19924;DHT22;10124;53.068;18.224;2023-02-22T05:30:30;-0.60;99.90
19924;DHT22;10124;53.068;18.224;2023-02-22T05:32:58;-0.80;99.90
19924;DHT22;10124;53.068;18.224;2023-02-22T05:35:28;-1.00;99.90
19924;DHT22;10124;53.068;18.224;2023-02-22T05:37:56;-1.10;99.90
19924;DHT22;10124;53.068;18.224;2023-02-22T05:40:25;-1.10;99.90
19924;DHT22;10124;53.068;18.224;2023-02-22T05:42:53;-1.20;99.90
19924;DHT22;10124;53.068;18.224;2023-02-22T05:45:25;-1.10;99.90
19924;DHT22;10124;53.068;18.224;2023-02-22T05:47:53;-0.90;99.90
19924;DHT22;10124;53.068;18.224;2023-02-22T05:52:51;-1.30;99.90
19924;DHT22;10124;53.068;18.224;2023-02-22T05:55:22;-1.10;99.90
19924;DHT22;10124;53.068;18.224;2023-02-22T05:57:50;-0.80;99.90
19924;DHT22;10124;53.068;18.224;2023-02-22T06:00:22;-0.60;99.90
19924;DHT22;10124;53.068;18.224;2023-02-22T06:03:01;-0.80;99.90
19924;DHT22;10124;53.068;18.224;2023-02-22T06:05:30;-0.40;99.90
19924;DHT22;10124;53.068;18.224;2023-02-22T06:08:00;-0.90;99.90
19924;DHT22;10124;53.068;18.224;2023-02-22T06:10:28;-0.30;99.90
19924;DHT22;10124;53.068;18.224;2023-02-22T06:12:57;-0.80;99.90
19924;DHT22;10124;53.068;18.224;2023-02-22T06:15:26;-1.00;99.90
19924;DHT22;10124;53.068;18.224;2023-02-22T06:17:55;-0.10;99.90
19924;DHT22;10124;53.068;18.224;2023-02-22T06:20:24;1.50;99.90
19924;DHT22;10124;53.068;18.224;2023-02-22T06:22:53;-0.50;99.90
19924;DHT22;10124;53.068;18.224;2023-02-22T06:25:24;-0.20;99.90
19924;DHT22;10124;53.068;18.224;2023-02-22T06:27:52;-0.20;99.90
19924;DHT22;10124;53.068;18.224;2023-02-22T06:30:23;-0.70;99.90
19924;DHT22;10124;53.068;18.224;2023-02-22T06:32:51;-0.50;99.90
19924;DHT22;10124;53.068;18.224;2023-02-22T06:35:19;-0.70;99.90
19924;DHT22;10124;53.068;18.224;2023-02-22T06:37:46;-0.50;99.90
19924;DHT22;10124;53.068;18.224;2023-02-22T06:40:14;0.30;99.90
19924;DHT22;10124;53.068;18.224;2023-02-22T06:42:42;-0.30;99.90
19924;DHT22;10124;53.068;18.224;2023-02-22T06:45:10;-0.10;99.90
19924;DHT22;10124;53.068;18.224;2023-02-22T06:47:38;0.40;99.90
19924;DHT22;10124;53.068;18.224;2023-02-22T06:52:45;0.20;99.90
19924;DHT22;10124;53.068;18.224;2023-02-22T06:55:25;0.50;99.90
19924;DHT22;10124;53.068;18.224;2023-02-22T06:57:53;0.50;99.90
19924;DHT22;10124;53.068;18.224;2023-02-22T07:00:24;0.50;99.90
19924;DHT22;10124;53.068;18.224;2023-02-22T07:02:53;0.50;99.90
19924;DHT22;10124;53.068;18.224;2023-02-22T07:05:22;0.60;99.90
19924;DHT22;10124;53.068;18.224;2023-02-22T07:07:53;0.50;99.90
19924;DHT22;10124;53.068;18.224;2023-02-22T07:10:26;0.80;99.90
19924;DHT22;10124;53.068;18.224;2023-02-22T07:12:54;0.50;99.90
19924;DHT22;10124;53.068;18.224;2023-02-22T07:15:24;1.10;99.90
19924;DHT22;10124;53.068;18.224;2023-02-22T07:17:53;1.00;99.90
19924;DHT22;10124;53.068;18.224;2023-02-22T07:20:22;1.10;78.90
19924;DHT22;10124;53.068;18.224;2023-02-22T07:22:51;1.20;79.20
19924;DHT22;10124;53.068;18.224;2023-02-22T07:25:19;1.30;67.90
19924;DHT22;10124;53.068;18.224;2023-02-22T07:27:47;3.20;51.10
19924;DHT22;10124;53.068;18.224;2023-02-22T07:30:24;2.90;44.00
19924;DHT22;10124;53.068;18.224;2023-02-22T07:32:53;1.50;1.00
19924;DHT22;10124;53.068;18.224;2023-02-22T07:35:36;3.50;1.00
19924;DHT22;10124;53.068;18.224;2023-02-22T07:38:07;2.00;1.00
19924;DHT22;10124;53.068;18.224;2023-02-22T07:40:36;1.70;1.00
19924;DHT22;10124;53.068;18.224;2023-02-22T07:43:16;1.70;89.80
19924;DHT22;10124;53.068;18.224;2023-02-22T07:45:45;1.90;99.90
19924;DHT22;10124;53.068;18.224;2023-02-22T07:48:15;2.50;38.10
19924;DHT22;10124;53.068;18.224;2023-02-22T07:50:44;2.70;1.00
19924;DHT22;10124;53.068;18.224;2023-02-22T07:53:14;2.20;43.60
19924;DHT22;10124;53.068;18.224;2023-02-22T07:55:43;3.90;1.00
19924;DHT22;10124;53.068;18.224;2023-02-22T07:58:14;4.20;1.00
19924;DHT22;10124;53.068;18.224;2023-02-22T08:00:43;3.10;1.00
19924;DHT22;10124;53.068;18.224;2023-02-22T08:03:12;2.90;1.00
19924;DHT22;10124;53.068;18.224;2023-02-22T08:05:44;3.70;1.00
19924;DHT22;10124;53.068;18.224;2023-02-22T08:08:12;2.90;99.90
19924;DHT22;10124;53.068;18.224;2023-02-22T08:10:46;4.50;1.00
19924;DHT22;10124;53.068;18.224;2023-02-22T08:13:13;3.30;1.00
19924;DHT22;10124;53.068;18.224;2023-02-22T08:15:41;5.30;1.00
19924;DHT22;10124;53.068;18.224;2023-02-22T08:18:12;3.50;1.00
19924;DHT22;10124;53.068;18.224;2023-02-22T08:20:42;3.40;1.00
19924;DHT22;10124;53.068;18.224;2023-02-22T08:23:11;3.90;1.00
19924;DHT22;10124;53.068;18.224;2023-02-22T08:25:39;3.60;1.00
19924;DHT22;10124;53.068;18.224;2023-02-22T08:28:10;4.60;1.00
19924;DHT22;10124;53.068;18.224;2023-02-22T08:30:38;3.50;1.00
19924;DHT22;10124;53.068;18.224;2023-02-22T08:33:06;3.60;1.00
19924;DHT22;10124;53.068;18.224;2023-02-22T08:35:34;5.20;1.00
19924;DHT22;10124;53.068;18.224;2023-02-22T08:38:04;3.40;1.00
19924;DHT22;10124;53.068;18.224;2023-02-22T08:40:35;3.60;1.00
19924;DHT22;10124;53.068;18.224;2023-02-22T08:43:03;3.90;1.00
19924;DHT22;10124;53.068;18.224;2023-02-22T08:45:31;4.70;1.00
19924;DHT22;10124;53.068;18.224;2023-02-22T08:47:58;5.40;1.00
19924;DHT22;10124;53.068;18.224;2023-02-22T08:50:29;7.20;1.00
19924;DHT22;10124;53.068;18.224;2023-02-22T08:53:00;5.60;1.00
19924;DHT22;10124;53.068;18.224;2023-02-22T08:55:30;5.90;1.00
19924;DHT22;10124;53.068;18.224;2023-02-22T08:57:59;6.20;1.00
19924;DHT22;10124;53.068;18.224;2023-02-22T09:00:31;6.30;1.00
19924;DHT22;10124;53.068;18.224;2023-02-22T09:03:01;8.60;1.00
19924;DHT22;10124;53.068;18.224;2023-02-22T09:05:30;5.70;1.00
19924;DHT22;10124;53.068;18.224;2023-02-22T09:07:59;5.70;1.00
19924;DHT22;10124;53.068;18.224;2023-02-22T09:10:30;5.70;1.00
19924;DHT22;10124;53.068;18.224;2023-02-22T09:12:58;5.70;1.00
19924;DHT22;10124;53.068;18.224;2023-02-22T09:15:28;6.10;1.00
19924;DHT22;10124;53.068;18.224;2023-02-22T09:17:56;5.60;1.00
19924;DHT22;10124;53.068;18.224;2023-02-22T09:20:24;6.10;1.00
19924;DHT22;10124;53.068;18.224;2023-02-22T09:22:52;5.60;1.00
19924;DHT22;10124;53.068;18.224;2023-02-22T09:25:21;5.10;1.00
19924;DHT22;10124;53.068;18.224;2023-02-22T09:27:50;4.90;1.00
19924;DHT22;10124;53.068;18.224;2023-02-22T09:30:39;5.20;1.00
19924;DHT22;10124;53.068;18.224;2023-02-22T09:33:16;4.90;1.00
19924;DHT22;10124;53.068;18.224;2023-02-22T09:35:48;5.50;1.00
19924;DHT22;10124;53.068;18.224;2023-02-22T09:38:18;7.40;1.00
19924;DHT22;10124;53.068;18.224;2023-02-22T09:40:57;5.50;99.90
19924;DHT22;10124;53.068;18.224;2023-02-22T09:43:36;5.30;99.90
19924;DHT22;10124;53.068;18.224;2023-02-22T09:49:15;6.10;99.90
19924;DHT22;10124;53.068;18.224;2023-02-22T09:51:57;5.10;99.90
19924;DHT22;10124;53.068;18.224;2023-02-22T09:54:43;5.20;99.90
19924;DHT22;10124;53.068;18.224;2023-02-22T09:57:25;5.30;99.90
19924;DHT22;10124;53.068;18.224;2023-02-22T10:00:17;5.80;99.90
19924;DHT22;10124;53.068;18.224;2023-02-22T10:02:53;6.00;99.90
19924;DHT22;10124;53.068;18.224;2023-02-22T10:05:35;6.00;99.90
19924;DHT22;10124;53.068;18.224;2023-02-22T10:08:13;5.90;99.90
19924;DHT22;10124;53.068;18.224;2023-02-22T10:10:42;6.00;99.90
19924;DHT22;10124;53.068;18.224;2023-02-22T10:21:24;7.50;99.90
19924;DHT22;10124;53.068;18.224;2023-02-22T10:26:43;7.80;99.90
19924;DHT22;10124;53.068;18.224;2023-02-22T10:31:50;8.00;99.90
19924;DHT22;10124;53.068;18.224;2023-02-22T10:34:25;7.50;99.90
19924;DHT22;10124;53.068;18.224;2023-02-22T10:37:27;6.80;99.90
19924;DHT22;10124;53.068;18.224;2023-02-22T10:40:17;6.60;99.90
19924;DHT22;10124;53.068;18.224;2023-02-22T10:42:46;7.30;99.90
19924;DHT22;10124;53.068;18.224;2023-02-22T10:45:25;8.00;99.90
19924;DHT22;10124;53.068;18.224;2023-02-22T10:47:56;8.40;99.90
19924;DHT22;10124;53.068;18.224;2023-02-22T10:50:28;8.20;99.90
19924;DHT22;10124;53.068;18.224;2023-02-22T10:52:57;7.70;99.90
19924;DHT22;10124;53.068;18.224;2023-02-22T10:55:25;7.80;99.90
19924;DHT22;10124;53.068;18.224;2023-02-22T10:58:01;7.50;99.90
19924;DHT22;10124;53.068;18.224;2023-02-22T11:00:36;7.50;99.90
19924;DHT22;10124;53.068;18.224;2023-02-22T11:03:19;7.30;99.90
19924;DHT22;10124;53.068;18.224;2023-02-22T11:05:49;7.30;99.90
19924;DHT22;10124;53.068;18.224;2023-02-22T11:11:02;8.00;99.90
19924;DHT22;10124;53.068;18.224;2023-02-22T11:13:38;8.70;99.90
19924;DHT22;10124;53.068;18.224;2023-02-22T11:18:46;11.00;4.20
19924;DHT22;10124;53.068;18.224;2023-02-22T11:21:20;11.60;1.00
19924;DHT22;10124;53.068;18.224;2023-02-22T11:23:49;11.90;1.00
19924;DHT22;10124;53.068;18.224;2023-02-22T11:26:27;12.60;1.00
19924;DHT22;10124;53.068;18.224;2023-02-22T11:28:55;13.20;1.00
19924;DHT22;10124;53.068;18.224;2023-02-22T11:31:27;11.90;1.00
19924;DHT22;10124;53.068;18.224;2023-02-22T11:34:00;11.50;1.00
19924;DHT22;10124;53.068;18.224;2023-02-22T11:36:39;10.40;1.00
19924;DHT22;10124;53.068;18.224;2023-02-22T11:39:26;9.40;1.00
19924;DHT22;10124;53.068;18.224;2023-02-22T11:41:55;9.70;1.00
19924;DHT22;10124;53.068;18.224;2023-02-22T11:46:55;10.50;1.00
19924;DHT22;10124;53.068;18.224;2023-02-22T11:52:22;10.80;1.00
19924;DHT22;10124;53.068;18.224;2023-02-22T12:10:32;8.20;1.00
19924;DHT22;10124;53.068;18.224;2023-02-22T12:13:12;8.30;1.00
19924;DHT22;10124;53.068;18.224;2023-02-22T12:16:04;7.90;1.00
19924;DHT22;10124;53.068;18.224;2023-02-22T12:21:29;7.30;1.00
19924;DHT22;10124;53.068;18.224;2023-02-22T12:24:15;6.90;1.00
19924;DHT22;10124;53.068;18.224;2023-02-22T12:26:55;7.20;32.30
19924;DHT22;10124;53.068;18.224;2023-02-22T12:29:41;8.30;3.50
19924;DHT22;10124;53.068;18.224;2023-02-22T12:32:39;7.90;1.00
19924;DHT22;10124;53.068;18.224;2023-02-22T12:35:28;7.10;1.00
19924;DHT22;10124;53.068;18.224;2023-02-22T12:41:11;7.30;1.00
19924;DHT22;10124;53.068;18.224;2023-02-22T12:43:43;7.00;1.00
19924;DHT22;10124;53.068;18.224;2023-02-22T12:46:20;8.00;1.00
19924;DHT22;10124;53.068;18.224;2023-02-22T12:49:02;9.60;1.00
19924;DHT22;10124;53.068;18.224;2023-02-22T12:56:52;12.00;1.00
19924;DHT22;10124;53.068;18.224;2023-02-22T12:59:32;12.10;1.00
19924;DHT22;10124;53.068;18.224;2023-02-22T13:02:28;12.30;1.00
19924;DHT22;10124;53.068;18.224;2023-02-22T13:05:00;12.00;1.00
19924;DHT22;10124;53.068;18.224;2023-02-22T13:13:07;12.00;1.00
19924;DHT22;10124;53.068;18.224;2023-02-22T13:15:44;10.60;1.00
19924;DHT22;10124;53.068;18.224;2023-02-22T13:18:27;9.60;1.00
19924;DHT22;10124;53.068;18.224;2023-02-22T13:23:59;8.50;1.00
19924;DHT22;10124;53.068;18.224;2023-02-22T13:27:07;8.60;1.00
19924;DHT22;10124;53.068;18.224;2023-02-22T13:29:28;8.80;1.00
19924;DHT22;10124;53.068;18.224;2023-02-22T13:32:11;9.70;1.00
19924;DHT22;10124;53.068;18.224;2023-02-22T13:48:44;11.40;1.00
19924;DHT22;10124;53.068;18.224;2023-02-22T13:51:45;11.10;1.00
19924;DHT22;10124;53.068;18.224;2023-02-22T13:54:23;9.80;1.00
19924;DHT22;10124;53.068;18.224;2023-02-22T13:56:54;9.20;1.00
19924;DHT22;10124;53.068;18.224;2023-02-22T13:59:34;8.30;1.00
19924;DHT22;10124;53.068;18.224;2023-02-22T14:02:04;8.20;1.00
19924;DHT22;10124;53.068;18.224;2023-02-22T14:04:38;8.10;1.00
19924;DHT22;10124;53.068;18.224;2023-02-22T14:09:55;7.60;1.00
19924;DHT22;10124;53.068;18.224;2023-02-22T14:18:03;6.70;1.00
19924;DHT22;10124;53.068;18.224;2023-02-22T14:20:36;6.50;1.00
19924;DHT22;10124;53.068;18.224;2023-02-22T14:23:26;6.20;1.00
19924;DHT22;10124;53.068;18.224;2023-02-22T14:26:10;5.80;11.20
19924;DHT22;10124;53.068;18.224;2023-02-22T14:31:13;6.00;1.00
19924;DHT22;10124;53.068;18.224;2023-02-22T14:34:16;6.90;1.00
19924;DHT22;10124;53.068;18.224;2023-02-22T14:37:05;7.10;1.00
19924;DHT22;10124;53.068;18.224;2023-02-22T14:47:57;7.00;1.00
19924;DHT22;10124;53.068;18.224;2023-02-22T14:55:59;5.70;1.00
19924;DHT22;10124;53.068;18.224;2023-02-22T15:00:58;5.60;1.00
19924;DHT22;10124;53.068;18.224;2023-02-22T15:03:32;5.40;21.70
19924;DHT22;10124;53.068;18.224;2023-02-22T15:06:16;5.20;19.40
19924;DHT22;10124;53.068;18.224;2023-02-22T15:08:46;5.10;43.80
19924;DHT22;10124;53.068;18.224;2023-02-22T15:11:26;4.90;27.80
19924;DHT22;10124;53.068;18.224;2023-02-22T15:13:59;4.60;28.90
19924;DHT22;10124;53.068;18.224;2023-02-22T15:16:28;4.80;95.70
19924;DHT22;10124;53.068;18.224;2023-02-22T15:19:00;4.60;91.60
19924;DHT22;10124;53.068;18.224;2023-02-22T15:21:30;4.60;90.40
19924;DHT22;10124;53.068;18.224;2023-02-22T15:24:01;3.90;99.90
19924;DHT22;10124;53.068;18.224;2023-02-22T15:31:51;4.10;99.90
19924;DHT22;10124;53.068;18.224;2023-02-22T15:34:25;4.10;99.90
19924;DHT22;10124;53.068;18.224;2023-02-22T15:36:55;4.70;99.90
19924;DHT22;10124;53.068;18.224;2023-02-22T15:39:30;4.10;99.90
19924;DHT22;10124;53.068;18.224;2023-02-22T15:42:08;4.10;99.90
19924;DHT22;10124;53.068;18.224;2023-02-22T15:44:39;4.30;99.90
19924;DHT22;10124;53.068;18.224;2023-02-22T15:47:19;4.20;99.90
19924;DHT22;10124;53.068;18.224;2023-02-22T15:50:21;3.90;99.90
19924;DHT22;10124;53.068;18.224;2023-02-22T15:55:39;3.50;99.90
19924;DHT22;10124;53.068;18.224;2023-02-22T16:00:41;3.40;99.90
19924;DHT22;10124;53.068;18.224;2023-02-22T16:03:12;3.30;99.90
19924;DHT22;10124;53.068;18.224;2023-02-22T16:05:47;3.20;99.90
19924;DHT22;10124;53.068;18.224;2023-02-22T16:08:54;3.10;99.90
19924;DHT22;10124;53.068;18.224;2023-02-22T16:11:29;3.10;99.90
19924;DHT22;10124;53.068;18.224;2023-02-22T16:14:21;3.10;99.90
19924;DHT22;10124;53.068;18.224;2023-02-22T16:22:39;2.90;99.90
19924;DHT22;10124;53.068;18.224;2023-02-22T16:27:53;4.50;99.90
19924;DHT22;10124;53.068;18.224;2023-02-22T16:30:33;2.90;99.90
19924;DHT22;10124;53.068;18.224;2023-02-22T16:33:08;2.90;99.90
19924;DHT22;10124;53.068;18.224;2023-02-22T16:35:40;2.90;99.90
19924;DHT22;10124;53.068;18.224;2023-02-22T16:38:18;2.70;99.90
19924;DHT22;10124;53.068;18.224;2023-02-22T16:40:55;2.70;99.90
19924;DHT22;10124;53.068;18.224;2023-02-22T16:43:27;2.80;99.90
19924;DHT22;10124;53.068;18.224;2023-02-22T16:46:01;2.80;99.90
19924;DHT22;10124;53.068;18.224;2023-02-22T16:48:32;2.70;1.00
19924;DHT22;10124;53.068;18.224;2023-02-22T16:51:21;2.60;1.00
19924;DHT22;10124;53.068;18.224;2023-02-22T16:53:52;2.70;1.00
19924;DHT22;10124;53.068;18.224;2023-02-22T16:56:28;2.70;99.90
19924;DHT22;10124;53.068;18.224;2023-02-22T16:59:02;2.70;99.90
19924;DHT22;10124;53.068;18.224;2023-02-22T17:01:32;2.70;1.00
19924;DHT22;10124;53.068;18.224;2023-02-22T17:04:04;2.70;1.00
19924;DHT22;10124;53.068;18.224;2023-02-22T17:06:34;2.80;99.90
19924;DHT22;10124;53.068;18.224;2023-02-22T17:09:03;2.80;99.90
19924;DHT22;10124;53.068;18.224;2023-02-22T17:11:30;2.70;99.90
19924;DHT22;10124;53.068;18.224;2023-02-22T17:13:59;2.70;1.00
19924;DHT22;10124;53.068;18.224;2023-02-22T17:16:26;2.30;1.00
19924;DHT22;10124;53.068;18.224;2023-02-22T17:18:54;2.70;1.00
19924;DHT22;10124;53.068;18.224;2023-02-22T17:21:22;2.70;1.00
19924;DHT22;10124;53.068;18.224;2023-02-22T17:23:50;3.00;1.00
19924;DHT22;10124;53.068;18.224;2023-02-22T17:26:19;2.80;1.00
19924;DHT22;10124;53.068;18.224;2023-02-22T17:31:21;2.70;1.00
19924;DHT22;10124;53.068;18.224;2023-02-22T17:34:00;3.80;1.00
19924;DHT22;10124;53.068;18.224;2023-02-22T17:36:30;3.00;1.00
19924;DHT22;10124;53.068;18.224;2023-02-22T17:38:58;2.70;1.00
19924;DHT22;10124;53.068;18.224;2023-02-22T17:41:27;2.30;1.00
19924;DHT22;10124;53.068;18.224;2023-02-22T17:43:56;2.70;1.00
19924;DHT22;10124;53.068;18.224;2023-02-22T17:46:24;2.20;1.00
19924;DHT22;10124;53.068;18.224;2023-02-22T17:48:53;2.60;1.00
19924;DHT22;10124;53.068;18.224;2023-02-22T17:51:23;2.60;1.00
19924;DHT22;10124;53.068;18.224;2023-02-22T17:53:51;2.70;1.00
19924;DHT22;10124;53.068;18.224;2023-02-22T17:56:19;2.50;1.00
19924;DHT22;10124;53.068;18.224;2023-02-22T17:58:48;2.50;1.00
19924;DHT22;10124;53.068;18.224;2023-02-22T18:01:29;2.50;1.00
19924;DHT22;10124;53.068;18.224;2023-02-22T18:04:00;2.50;1.00
19924;DHT22;10124;53.068;18.224;2023-02-22T18:06:29;2.50;1.00
19924;DHT22;10124;53.068;18.224;2023-02-22T18:09:00;2.50;1.00
19924;DHT22;10124;53.068;18.224;2023-02-22T18:11:36;2.40;1.00
19924;DHT22;10124;53.068;18.224;2023-02-22T18:14:06;2.50;1.00
19924;DHT22;10124;53.068;18.224;2023-02-22T18:16:36;4.70;1.00
19924;DHT22;10124;53.068;18.224;2023-02-22T18:19:06;2.40;1.00
19924;DHT22;10124;53.068;18.224;2023-02-22T18:21:33;2.90;1.00
19924;DHT22;10124;53.068;18.224;2023-02-22T18:24:05;2.40;1.00
19924;DHT22;10124;53.068;18.224;2023-02-22T18:26:34;2.30;1.00
19924;DHT22;10124;53.068;18.224;2023-02-22T18:29:05;2.30;1.00
19924;DHT22;10124;53.068;18.224;2023-02-22T18:31:33;2.40;1.00
19924;DHT22;10124;53.068;18.224;2023-02-22T18:34:02;2.30;1.00
19924;DHT22;10124;53.068;18.224;2023-02-22T18:36:29;4.40;1.00
19924;DHT22;10124;53.068;18.224;2023-02-22T18:38:57;2.20;1.00
19924;DHT22;10124;53.068;18.224;2023-02-22T18:41:25;2.30;1.00
19924;DHT22;10124;53.068;18.224;2023-02-22T18:43:54;2.30;1.00
19924;DHT22;10124;53.068;18.224;2023-02-22T18:46:25;2.30;1.00
19924;DHT22;10124;53.068;18.224;2023-02-22T18:48:55;2.20;1.00
19924;DHT22;10124;53.068;18.224;2023-02-22T18:51:25;2.30;1.00
19924;DHT22;10124;53.068;18.224;2023-02-22T18:53:55;2.20;1.00
19924;DHT22;10124;53.068;18.224;2023-02-22T18:56:28;2.20;1.00
19924;DHT22;10124;53.068;18.224;2023-02-22T18:58:59;2.60;1.00
19924;DHT22;10124;53.068;18.224;2023-02-22T19:01:27;2.20;1.00
19924;DHT22;10124;53.068;18.224;2023-02-22T19:03:57;2.30;1.00
19924;DHT22;10124;53.068;18.224;2023-02-22T19:06:25;2.20;1.00
19924;DHT22;10124;53.068;18.224;2023-02-22T19:08:54;2.20;1.00
19924;DHT22;10124;53.068;18.224;2023-02-22T19:11:23;2.20;1.00
19924;DHT22;10124;53.068;18.224;2023-02-22T19:13:55;2.20;1.00
19924;DHT22;10124;53.068;18.224;2023-02-22T19:16:25;2.30;1.00
19924;DHT22;10124;53.068;18.224;2023-02-22T19:18:53;2.30;1.00
19924;DHT22;10124;53.068;18.224;2023-02-22T19:21:27;2.20;1.00
19924;DHT22;10124;53.068;18.224;2023-02-22T19:24:00;2.30;1.00
19924;DHT22;10124;53.068;18.224;2023-02-22T19:26:28;2.30;1.00
19924;DHT22;10124;53.068;18.224;2023-02-22T19:29:00;2.30;1.00
19924;DHT22;10124;53.068;18.224;2023-02-22T19:31:32;2.20;1.00
19924;DHT22;10124;53.068;18.224;2023-02-22T19:34:03;2.30;1.00
19924;DHT22;10124;53.068;18.224;2023-02-22T19:36:32;2.20;1.00
19924;DHT22;10124;53.068;18.224;2023-02-22T19:39:00;2.40;1.00
19924;DHT22;10124;53.068;18.224;2023-02-22T19:41:31;2.20;1.00